Time;durP1;ratioP1;P1;durP2;ratioP2;P2;SDS_P1;SDS_P2;PMS_P1;PMS_P2;Temp;Humidity;BMP_temperature;BMP_pressure;BME280_temperature;BME280_humidity;BME280_pressure;Samples;Min_cycle;Max_cycle;Signal;HPM_P1;HPM_P2
2023/04/20 00:01:55;;;;;;;8.47;4.80;;;8.90;12.80;;;;;;4996856;28;20406;-74
2023/04/20 00:04:21;;;;;;;9.32;4.60;;;8.90;12.80;;;;;;4993651;28;20394;-74
2023/04/20 00:06:48;;;;;;;7.32;4.50;;;8.90;12.40;;;;;;4993151;28;20832;-74
2023/04/20 00:09:14;;;;;;;9.70;4.70;;;8.90;12.50;;;;;;4993340;28;20736;-74
2023/04/20 00:11:39;;;;;;;10.07;4.65;;;8.90;12.60;;;;;;4992630;28;20389;-74
2023/04/20 00:14:05;;;;;;;10.52;5.05;;;8.80;12.70;;;;;;4993382;28;21038;-74
2023/04/20 00:16:31;;;;;;;7.18;4.40;;;8.80;12.70;;;;;;4992897;28;20403;-74
2023/04/20 00:18:58;;;;;;;9.07;4.73;;;8.80;12.20;;;;;;4992688;28;20875;-74
2023/04/20 00:21:24;;;;;;;10.82;4.70;;;8.90;12.20;;;;;;4992452;28;20476;-74
2023/04/20 00:23:50;;;;;;;9.63;4.30;;;8.80;12.10;;;;;;4993048;28;20398;-74
2023/04/20 00:26:16;;;;;;;6.57;4.00;;;8.90;12.00;;;;;;4990984;28;20391;-73
2023/04/20 00:28:42;;;;;;;6.72;4.45;;;8.80;12.10;;;;;;4992717;28;20390;-75
2023/04/20 00:31:08;;;;;;;13.55;4.60;;;8.80;12.00;;;;;;4992227;28;20906;-75
2023/04/20 00:33:33;;;;;;;8.17;4.23;;;8.70;12.00;;;;;;4993771;28;20481;-73
2023/04/20 00:35:59;;;;;;;8.60;3.90;;;8.70;12.30;;;;;;4991419;28;20764;-74
2023/04/20 00:38:24;;;;;;;6.87;4.27;;;8.70;12.20;;;;;;4992789;28;20445;-73
2023/04/20 00:40:52;;;;;;;10.03;4.30;;;8.70;12.10;;;;;;4990854;28;20398;-74
2023/04/20 00:43:19;;;;;;;9.90;4.40;;;8.70;12.20;;;;;;4992355;28;20401;-73
2023/04/20 00:45:45;;;;;;;8.03;4.27;;;8.70;11.80;;;;;;4992310;28;20519;-74
2023/04/20 00:48:11;;;;;;;7.53;4.90;;;8.60;11.90;;;;;;4992248;28;20400;-74
2023/04/20 00:50:38;;;;;;;8.85;4.45;;;8.60;12.10;;;;;;4992531;28;20499;-73
2023/04/20 00:53:07;;;;;;;7.05;4.18;;;8.60;12.20;;;;;;4991888;28;20390;-74
2023/04/20 00:55:35;;;;;;;10.10;5.05;;;8.60;12.20;;;;;;4992340;28;20906;-74
2023/04/20 00:58:01;;;;;;;7.57;4.25;;;8.50;12.20;;;;;;4993862;28;20400;-74
2023/04/20 01:00:26;;;;;;;9.57;5.00;;;8.50;12.20;;;;;;4994025;28;20387;-74
2023/04/20 01:02:52;;;;;;;9.00;4.47;;;8.40;12.20;;;;;;4993314;28;20454;-74
2023/04/20 01:05:18;;;;;;;9.07;4.20;;;8.40;12.20;;;;;;4993117;28;20456;-74
2023/04/20 01:07:43;;;;;;;7.00;4.60;;;8.40;12.20;;;;;;4992778;28;20457;-74
2023/04/20 01:10:09;;;;;;;8.37;4.33;;;8.30;12.20;;;;;;4993892;28;20422;-74
2023/04/20 01:12:35;;;;;;;7.45;4.60;;;8.30;12.10;;;;;;4994149;28;20466;-75
2023/04/20 01:15:04;;;;;;;10.75;4.93;;;8.30;12.40;;;;;;4993415;28;20374;-74
2023/04/20 01:17:35;;;;;;;6.60;4.60;;;8.20;12.50;;;;;;4994004;28;20399;-74
2023/04/20 01:20:01;;;;;;;7.97;4.60;;;8.20;12.60;;;;;;4994572;28;20390;-74
2023/04/20 01:22:27;;;;;;;8.57;4.28;;;8.10;12.70;;;;;;4996027;28;20926;-75
2023/04/20 01:24:53;;;;;;;7.07;4.57;;;8.10;12.90;;;;;;4997418;28;20390;-74
2023/04/20 01:27:18;;;;;;;11.00;4.50;;;8.10;12.90;;;;;;5005137;28;20465;-74
2023/04/20 01:29:45;;;;;;;6.60;4.30;;;8.00;12.80;;;;;;5006238;28;20395;-72
2023/04/20 01:32:11;;;;;;;10.82;5.07;;;8.00;12.80;;;;;;4996053;28;20406;-73
2023/04/20 01:34:37;;;;;;;8.75;4.47;;;8.00;13.00;;;;;;4994407;28;20787;-73
2023/04/20 01:37:06;;;;;;;6.00;4.30;;;7.90;13.00;;;;;;4996373;28;20391;-73
2023/04/20 01:39:35;;;;;;;11.15;4.75;;;7.90;13.20;;;;;;4997556;28;20394;-72
2023/04/20 01:42:00;;;;;;;9.80;4.40;;;7.90;13.20;;;;;;4997336;28;20548;-74
2023/04/20 01:44:26;;;;;;;8.07;4.37;;;7.80;13.40;;;;;;4997523;28;20933;-72
2023/04/20 01:46:52;;;;;;;7.03;4.50;;;7.90;13.50;;;;;;4996953;28;20409;-73
2023/04/20 01:49:17;;;;;;;10.87;4.30;;;7.80;13.40;;;;;;4995892;28;20382;-73
2023/04/20 01:51:43;;;;;;;8.00;4.20;;;7.80;13.50;;;;;;4994689;28;20417;-73
2023/04/20 01:54:08;;;;;;;9.13;4.57;;;7.80;13.70;;;;;;4995906;28;20390;-75
2023/04/20 01:56:34;;;;;;;12.40;5.10;;;7.70;13.70;;;;;;4994698;28;20478;-73
2023/04/20 01:58:59;;;;;;;12.70;4.80;;;7.70;13.90;;;;;;4992324;28;20386;-74
2023/04/20 02:01:25;;;;;;;8.33;4.77;;;7.70;13.60;;;;;;4990994;28;20420;-74
2023/04/20 02:03:51;;;;;;;10.23;4.93;;;7.70;13.90;;;;;;4992599;28;20440;-74
2023/04/20 02:06:16;;;;;;;6.80;4.60;;;7.70;13.90;;;;;;4992576;28;20418;-73
2023/04/20 02:08:42;;;;;;;8.73;4.40;;;7.80;13.80;;;;;;4992235;28;20396;-74
2023/04/20 02:11:08;;;;;;;10.30;5.07;;;7.90;13.40;;;;;;4990953;28;20379;-75
2023/04/20 02:13:33;;;;;;;8.88;4.70;;;7.90;13.70;;;;;;4991719;28;20759;-75
2023/04/20 02:15:59;;;;;;;7.30;4.60;;;7.80;13.60;;;;;;4991606;28;20388;-75
2023/04/20 02:18:24;;;;;;;9.05;4.50;;;7.80;13.50;;;;;;4991420;28;20446;-74
2023/04/20 02:20:50;;;;;;;9.88;4.60;;;7.80;13.80;;;;;;4991309;28;20390;-74
2023/04/20 02:23:15;;;;;;;8.75;4.05;;;7.80;14.00;;;;;;4991121;28;20477;-74
2023/04/20 02:25:41;;;;;;;7.40;4.67;;;7.70;13.90;;;;;;4991249;28;20386;-74
2023/04/20 02:28:07;;;;;;;8.80;4.50;;;7.70;14.20;;;;;;4991209;28;20390;-74
2023/04/20 02:30:32;;;;;;;16.77;5.10;;;7.70;14.30;;;;;;4991898;28;20466;-74
2023/04/20 02:32:58;;;;;;;9.60;4.30;;;7.70;14.60;;;;;;4991040;28;20465;-74
2023/04/20 02:35:24;;;;;;;10.20;4.90;;;7.80;14.30;;;;;;4992134;28;20413;-74
2023/04/20 02:37:50;;;;;;;9.95;4.22;;;7.90;14.30;;;;;;4993304;28;20834;-74
2023/04/20 02:40:16;;;;;;;9.90;4.20;;;7.80;14.40;;;;;;4992791;28;20429;-74
2023/04/20 02:42:41;;;;;;;7.53;4.20;;;7.90;14.40;;;;;;4990261;28;20895;-74
2023/04/20 02:45:08;;;;;;;9.90;4.50;;;7.90;14.10;;;;;;5005105;28;20379;-73
2023/04/20 02:47:33;;;;;;;14.13;4.95;;;8.00;14.20;;;;;;5008783;28;20421;-75
2023/04/20 02:49:59;;;;;;;7.97;4.20;;;8.00;14.20;;;;;;5010950;28;20383;-74
2023/04/20 02:52:24;;;;;;;13.70;4.80;;;8.00;14.60;;;;;;5009899;28;20414;-74
2023/04/20 02:54:50;;;;;;;5.87;4.20;;;8.00;14.60;;;;;;4997569;28;20390;-74
2023/04/20 02:57:16;;;;;;;9.40;4.40;;;8.00;14.50;;;;;;4996070;28;20391;-74
2023/04/20 02:59:42;;;;;;;7.77;4.20;;;8.00;14.60;;;;;;4995668;28;20383;-74
2023/04/20 03:02:07;;;;;;;10.15;4.50;;;8.10;14.80;;;;;;5001142;28;20430;-74
2023/04/20 03:04:33;;;;;;;15.63;4.95;;;8.10;14.90;;;;;;4998712;28;20390;-75
2023/04/20 03:07:00;;;;;;;13.77;4.70;;;8.00;15.10;;;;;;4994668;28;20387;-74
2023/04/20 03:09:25;;;;;;;7.82;4.00;;;8.00;15.10;;;;;;4996295;28;20448;-74
2023/04/20 03:11:51;;;;;;;8.47;4.20;;;8.00;15.40;;;;;;5000791;28;20402;-74
2023/04/20 03:14:16;;;;;;;6.37;4.07;;;8.00;15.40;;;;;;5013194;28;20390;-75
2023/04/20 03:16:42;;;;;;;10.10;4.27;;;8.10;15.60;;;;;;5011644;28;20429;-74
2023/04/20 03:19:08;;;;;;;11.43;4.10;;;8.10;15.50;;;;;;5006007;28;20452;-74
2023/04/20 03:21:33;;;;;;;9.68;4.35;;;8.00;16.20;;;;;;4994053;28;20414;-74
2023/04/20 03:24:00;;;;;;;8.05;4.30;;;8.10;16.60;;;;;;4993922;28;20413;-74
2023/04/20 03:26:25;;;;;;;10.48;4.10;;;8.20;16.20;;;;;;4994319;28;20390;-73
2023/04/20 03:28:51;;;;;;;13.98;4.28;;;8.20;17.20;;;;;;5015624;28;20461;-74
2023/04/20 03:31:17;;;;;;;8.77;4.30;;;8.20;16.70;;;;;;5011760;28;20457;-74
2023/04/20 03:33:43;;;;;;;10.85;4.40;;;8.30;16.70;;;;;;4997797;28;20390;-74
2023/04/20 03:36:10;;;;;;;7.23;4.40;;;8.30;16.50;;;;;;5010572;23;20439;-72
2023/04/20 03:38:37;;;;;;;8.37;4.10;;;8.30;16.50;;;;;;5002218;28;20528;-73
2023/04/20 03:41:03;;;;;;;10.70;4.80;;;8.30;16.70;;;;;;4997224;28;20423;-72
2023/04/20 03:43:29;;;;;;;8.65;4.50;;;8.20;16.80;;;;;;4999520;28;20941;-72
2023/04/20 03:45:54;;;;;;;10.60;4.30;;;8.20;17.10;;;;;;4997458;28;20441;-72
2023/04/20 03:48:20;;;;;;;7.38;3.80;;;8.20;17.20;;;;;;4996688;28;20445;-72
2023/04/20 03:50:45;;;;;;;9.00;4.22;;;8.20;17.50;;;;;;4998804;28;20379;-72
2023/04/20 03:53:11;;;;;;;8.75;4.82;;;8.30;17.50;;;;;;4998287;28;20458;-71
2023/04/20 03:55:36;;;;;;;7.30;3.72;;;8.30;17.40;;;;;;4993991;28;20818;-71
2023/04/20 03:58:03;;;;;;;7.10;4.13;;;8.30;17.00;;;;;;4995196;28;20397;-70
2023/04/20 04:00:29;;;;;;;9.48;4.30;;;8.20;17.00;;;;;;4996438;28;20402;-71
2023/04/20 04:02:54;;;;;;;9.47;4.73;;;8.10;17.60;;;;;;4994435;28;20484;-70
2023/04/20 04:05:20;;;;;;;8.27;4.50;;;8.10;17.80;;;;;;4992758;28;20748;-70
2023/04/20 04:07:46;;;;;;;9.10;4.70;;;8.10;17.90;;;;;;4995594;28;20472;-71
2023/04/20 04:10:12;;;;;;;6.90;4.13;;;8.10;18.00;;;;;;4996362;28;20383;-72
2023/04/20 04:12:37;;;;;;;6.90;4.23;;;8.10;18.10;;;;;;4994365;28;20383;-71
2023/04/20 04:15:03;;;;;;;6.60;3.93;;;8.20;18.10;;;;;;4994704;28;20394;-71
2023/04/20 04:17:29;;;;;;;8.88;4.40;;;8.10;18.30;;;;;;4999456;28;20386;-72
2023/04/20 04:19:54;;;;;;;8.70;4.40;;;8.10;18.40;;;;;;4997088;28;20386;-71
2023/04/20 04:22:20;;;;;;;8.23;4.73;;;8.10;18.60;;;;;;4994946;28;20398;-72
2023/04/20 04:24:45;;;;;;;10.47;4.40;;;8.10;18.90;;;;;;4994618;28;20393;-72
2023/04/20 04:27:14;;;;;;;12.57;4.60;;;8.10;19.10;;;;;;4995594;28;20855;-71
2023/04/20 04:29:40;;;;;;;12.65;6.00;;;8.10;19.60;;;;;;4994673;28;20797;-71
2023/04/20 04:32:06;;;;;;;12.85;5.45;;;8.10;19.80;;;;;;4996784;28;20386;-73
2023/04/20 04:34:33;;;;;;;8.48;4.78;;;8.10;20.50;;;;;;4997200;28;20445;-72
2023/04/20 04:36:59;;;;;;;8.43;4.77;;;8.20;21.50;;;;;;4997540;28;20410;-72
2023/04/20 04:39:26;;;;;;;12.25;5.38;;;8.10;22.40;;;;;;4996038;28;20424;-72
2023/04/20 04:41:52;;;;;;;11.13;5.47;;;8.20;22.60;;;;;;4994659;28;20409;-73
2023/04/20 04:44:18;;;;;;;12.93;5.43;;;8.30;24.00;;;;;;4994820;28;20844;-72
2023/04/20 04:46:44;;;;;;;12.95;5.50;;;8.30;25.70;;;;;;4993753;28;20390;-71
2023/04/20 04:49:10;;;;;;;10.33;5.40;;;8.30;26.30;;;;;;4993411;28;20417;-72
2023/04/20 04:51:36;;;;;;;9.15;5.93;;;8.30;27.30;;;;;;4994021;28;20418;-72
2023/04/20 04:54:01;;;;;;;10.10;5.83;;;8.40;28.10;;;;;;4996449;28;20891;-72
2023/04/20 04:56:27;;;;;;;11.33;6.03;;;8.40;28.70;;;;;;5004130;28;20409;-72
2023/04/20 04:58:53;;;;;;;12.13;6.93;;;8.50;29.10;;;;;;5005620;28;20382;-71
2023/04/20 05:01:19;;;;;;;12.80;6.40;;;8.50;30.20;;;;;;5006933;28;20494;-72
2023/04/20 05:03:45;;;;;;;11.60;6.43;;;8.50;31.30;;;;;;5006646;28;20398;-71
2023/04/20 05:06:11;;;;;;;13.32;6.90;;;8.60;31.10;;;;;;5004965;28;20379;-72
2023/04/20 05:08:36;;;;;;;13.23;7.60;;;8.60;31.20;;;;;;5007941;28;20808;-72
2023/04/20 05:11:02;;;;;;;11.90;7.30;;;8.60;32.70;;;;;;5004970;28;20484;-72
2023/04/20 05:13:27;;;;;;;13.20;7.50;;;8.70;32.00;;;;;;4998287;28;20410;-71
2023/04/20 05:15:53;;;;;;;13.70;7.17;;;8.70;32.60;;;;;;5000171;28;20409;-73
2023/04/20 05:18:18;;;;;;;15.40;7.70;;;8.70;34.00;;;;;;5000156;28;20398;-72
2023/04/20 05:20:44;;;;;;;9.53;7.13;;;8.70;32.50;;;;;;4997599;28;20387;-72
2023/04/20 05:23:10;;;;;;;13.87;7.90;;;8.80;32.60;;;;;;4993580;28;20399;-71
2023/04/20 05:25:35;;;;;;;12.02;7.30;;;8.90;33.10;;;;;;4994006;28;20405;-72
2023/04/20 05:28:01;;;;;;;16.25;7.45;;;8.90;32.90;;;;;;4994012;28;20474;-71
2023/04/20 05:30:26;;;;;;;14.65;7.40;;;8.90;32.80;;;;;;4993186;28;20525;-71
2023/04/20 05:32:52;;;;;;;15.60;7.40;;;8.90;32.30;;;;;;4996936;28;20402;-72
2023/04/20 05:35:18;;;;;;;13.70;8.15;;;9.00;33.00;;;;;;5005257;28;20424;-72
2023/04/20 05:37:44;;;;;;;12.20;8.30;;;9.00;33.70;;;;;;4998416;28;20919;-72
2023/04/20 05:40:10;;;;;;;12.23;6.90;;;9.00;33.40;;;;;;4992180;28;20481;-71
2023/04/20 05:42:36;;;;;;;13.77;7.70;;;9.10;32.40;;;;;;4993498;28;20414;-71
2023/04/20 05:45:01;;;;;;;19.33;8.10;;;9.20;31.40;;;;;;4992886;28;20960;-71
2023/04/20 05:47:27;;;;;;;14.23;8.10;;;9.30;31.00;;;;;;4993007;28;20382;-71
2023/04/20 05:49:53;;;;;;;12.60;8.57;;;9.30;30.80;;;;;;4999677;28;20398;-71
2023/04/20 05:52:18;;;;;;;14.97;8.40;;;9.50;30.50;;;;;;5000093;28;20477;-70
2023/04/20 05:54:44;;;;;;;14.10;8.80;;;9.60;30.10;;;;;;5006817;28;20449;-72
2023/04/20 05:57:10;;;;;;;13.27;10.20;;;9.50;30.70;;;;;;5005597;28;20466;-72
2023/04/20 05:59:36;;;;;;;15.38;9.80;;;9.50;29.70;;;;;;5003145;28;20394;-71
2023/04/20 06:02:02;;;;;;;15.00;10.48;;;9.50;29.40;;;;;;5000598;28;20415;-70
2023/04/20 06:04:29;;;;;;;14.23;10.63;;;9.40;30.60;;;;;;5002199;28;20398;-71
2023/04/20 06:06:54;;;;;;;14.80;9.40;;;9.40;30.50;;;;;;5003307;28;20781;-71
2023/04/20 06:09:20;;;;;;;13.18;9.30;;;9.40;30.80;;;;;;5001392;28;20402;-71
2023/04/20 06:11:46;;;;;;;12.98;9.30;;;9.30;30.40;;;;;;5002499;28;20449;-71
2023/04/20 06:14:13;;;;;;;14.47;9.80;;;9.10;31.20;;;;;;5002061;28;20440;-71
2023/04/20 06:16:39;;;;;;;16.25;10.18;;;9.10;32.90;;;;;;5001739;28;20393;-70
2023/04/20 06:19:05;;;;;;;13.90;9.83;;;9.20;32.50;;;;;;5002765;28;20516;-70
2023/04/20 06:21:33;;;;;;;14.73;10.30;;;9.20;31.60;;;;;;4997280;28;20464;-72
2023/04/20 06:23:59;;;;;;;14.65;10.30;;;9.20;31.60;;;;;;4995998;28;20390;-71
2023/04/20 06:26:25;;;;;;;16.92;11.20;;;9.20;31.80;;;;;;4998488;28;20385;-71
2023/04/20 06:28:52;;;;;;;21.67;10.90;;;9.10;32.40;;;;;;4995837;28;20390;-72
2023/04/20 06:31:18;;;;;;;14.35;10.30;;;9.00;32.40;;;;;;4995187;28;20418;-73
2023/04/20 06:33:44;;;;;;;15.70;9.77;;;9.00;33.70;;;;;;4995741;28;20386;-71
2023/04/20 06:36:10;;;;;;;16.23;11.00;;;9.10;32.40;;;;;;4995976;28;20406;-72
2023/04/20 06:38:35;;;;;;;16.05;12.10;;;9.10;34.20;;;;;;4997058;28;20767;-72
2023/04/20 06:41:01;;;;;;;14.80;10.47;;;9.10;33.90;;;;;;4995668;28;20390;-72
2023/04/20 06:43:28;;;;;;;17.92;11.13;;;9.30;33.10;;;;;;4995171;28;20398;-72
2023/04/20 06:45:53;;;;;;;18.08;11.60;;;9.30;33.00;;;;;;4997395;28;20886;-72
2023/04/20 06:48:19;;;;;;;19.83;11.77;;;9.40;32.50;;;;;;4996552;28;20386;-72
2023/04/20 06:50:49;;;;;;;16.67;11.90;;;9.20;33.40;;;;;;4996295;28;20803;-70
2023/04/20 06:53:15;;;;;;;23.23;12.30;;;9.20;34.60;;;;;;4996542;28;20386;-71
2023/04/20 06:55:41;;;;;;;16.25;11.35;;;9.20;35.00;;;;;;4996335;28;20445;-72
2023/04/20 06:58:06;;;;;;;16.10;11.00;;;9.30;36.60;;;;;;4995842;28;20387;-72
2023/04/20 07:00:32;;;;;;;13.27;10.27;;;9.50;34.50;;;;;;4996125;28;20387;-72
2023/04/20 07:02:57;;;;;;;11.27;8.40;;;9.50;35.30;;;;;;4994177;28;20895;-72
2023/04/20 07:05:23;;;;;;;11.43;8.13;;;9.50;35.80;;;;;;4993852;28;20395;-71
2023/04/20 07:07:48;;;;;;;11.37;8.07;;;9.60;35.80;;;;;;4994185;28;20441;-70
2023/04/20 07:10:14;;;;;;;10.37;8.00;;;9.30;37.00;;;;;;4994655;28;20418;-70
2023/04/20 07:12:41;;;;;;;12.00;7.57;;;9.30;38.10;;;;;;4993598;28;20751;-70
2023/04/20 07:15:08;;;;;;;12.43;8.73;;;9.30;38.80;;;;;;4992617;28;20892;-70
2023/04/20 07:17:34;;;;;;;15.70;9.23;;;9.60;35.60;;;;;;4994208;28;20394;-70
2023/04/20 07:20:06;;;;;;;12.63;8.75;;;9.60;35.60;;;;;;4994273;28;20393;-71
2023/04/20 07:22:32;;;;;;;11.38;8.23;;;9.50;35.80;;;;;;4993692;28;20429;-71
2023/04/20 07:25:03;;;;;;;16.17;8.98;;;9.20;37.20;;;;;;4993963;28;20382;-72
2023/04/20 07:27:29;;;;;;;12.88;9.10;;;9.10;38.90;;;;;;4996004;28;20390;-71
2023/04/20 07:29:58;;;;;;;11.43;8.60;;;9.10;39.90;;;;;;5000310;28;20455;-71
2023/04/20 07:32:24;;;;;;;11.70;8.63;;;9.20;39.70;;;;;;5002457;28;20418;-70
2023/04/20 07:34:49;;;;;;;14.20;8.82;;;9.20;38.80;;;;;;5001067;28;20397;-72
2023/04/20 07:37:15;;;;;;;13.60;8.27;;;9.10;40.30;;;;;;4996501;28;20403;-70
2023/04/20 07:39:40;;;;;;;12.20;9.60;;;9.20;38.60;;;;;;4993729;28;20496;-71
2023/04/20 07:42:06;;;;;;;13.23;9.60;;;9.20;38.70;;;;;;4994441;28;20441;-72
2023/04/20 07:44:32;;;;;;;13.47;10.30;;;9.30;38.20;;;;;;4994666;28;20394;-70
2023/04/20 07:46:57;;;;;;;15.53;10.83;;;9.20;39.20;;;;;;4994374;28;20398;-71
2023/04/20 07:49:25;;;;;;;15.00;10.10;;;9.40;38.50;;;;;;4993933;28;20394;-71
2023/04/20 07:51:50;;;;;;;13.40;9.73;;;9.30;37.80;;;;;;4993570;28;20402;-72
2023/04/20 07:54:16;;;;;;;11.73;9.13;;;9.30;38.20;;;;;;4993032;28;20477;-70
2023/04/20 07:56:41;;;;;;;13.40;9.80;;;9.20;38.20;;;;;;4992041;28;20422;-71
2023/04/20 07:59:08;;;;;;;12.48;9.77;;;9.20;39.20;;;;;;4993319;28;20410;-71
2023/04/20 08:01:35;;;;;;;10.85;9.50;;;9.20;38.50;;;;;;4992316;28;20473;-70
2023/04/20 08:04:01;;;;;;;15.27;9.82;;;9.10;39.60;;;;;;4991815;28;20420;-71
2023/04/20 08:06:27;;;;;;;14.93;10.13;;;9.10;39.70;;;;;;4992844;28;20382;-71
2023/04/20 08:08:52;;;;;;;14.17;11.00;;;9.00;40.90;;;;;;4992852;28;20478;-71
2023/04/20 08:11:18;;;;;;;16.67;11.20;;;9.10;40.60;;;;;;4992689;28;20394;-71
2023/04/20 08:13:44;;;;;;;14.33;11.47;;;9.20;39.90;;;;;;4991898;28;20913;-72
2023/04/20 08:16:09;;;;;;;15.03;10.63;;;9.20;39.90;;;;;;4993037;28;20393;-71
2023/04/20 08:18:35;;;;;;;14.90;10.90;;;9.30;39.60;;;;;;4993271;28;20451;-71
2023/04/20 08:21:00;;;;;;;15.37;11.13;;;9.50;38.90;;;;;;4991385;28;20399;-70
2023/04/20 08:23:26;;;;;;;15.80;10.20;;;9.60;36.80;;;;;;4993341;28;20878;-70
2023/04/20 08:25:56;;;;;;;16.65;10.48;;;9.60;37.20;;;;;;4993060;28;20741;-71
2023/04/20 08:28:22;;;;;;;15.60;10.68;;;9.70;37.40;;;;;;4991854;28;20439;-72
2023/04/20 08:30:48;;;;;;;13.93;10.35;;;9.90;36.50;;;;;;4993028;28;20437;-71
2023/04/20 08:33:14;;;;;;;15.85;11.40;;;10.00;34.70;;;;;;4993851;28;20879;-71
2023/04/20 08:35:39;;;;;;;14.53;11.03;;;10.10;35.50;;;;;;4995200;28;20914;-71
2023/04/20 08:38:06;;;;;;;18.57;10.10;;;10.00;35.10;;;;;;4994294;28;20481;-72
2023/04/20 08:40:31;;;;;;;16.60;10.60;;;9.80;35.00;;;;;;4993941;28;20885;-71
2023/04/20 08:43:00;;;;;;;15.88;11.30;;;9.60;36.70;;;;;;4992017;28;20481;-70
2023/04/20 08:45:29;;;;;;;17.30;11.57;;;9.50;38.70;;;;;;4992871;28;20387;-71
2023/04/20 08:47:56;;;;;;;17.90;11.68;;;9.40;39.10;;;;;;4992035;28;20393;-70
2023/04/20 08:50:22;;;;;;;17.08;11.05;;;9.40;38.70;;;;;;4975179;28;20441;-71
2023/04/20 08:52:47;;;;;;;18.85;11.52;;;9.40;39.10;;;;;;4992762;28;20390;-70
2023/04/20 08:55:19;;;;;;;16.65;11.50;;;9.30;40.10;;;;;;4993418;28;20394;-71
2023/04/20 08:57:47;;;;;;;15.25;10.93;;;9.30;40.20;;;;;;4994406;28;20748;-71
2023/04/20 09:00:14;;;;;;;19.05;11.25;;;9.40;40.10;;;;;;4993791;28;20394;-72
2023/04/20 09:02:54;;;;;;;17.88;11.80;;;9.50;38.60;;;;;;4993818;28;20418;-71
2023/04/20 09:05:27;;;;;;;15.70;11.73;;;9.50;39.90;;;;;;4990854;28;20461;-72
2023/04/20 09:07:57;;;;;;;18.13;11.40;;;9.60;38.30;;;;;;4992484;28;20394;-71
2023/04/20 09:10:24;;;;;;;16.80;12.00;;;9.60;38.10;;;;;;4992720;28;20393;-72
2023/04/20 09:12:50;;;;;;;15.60;11.50;;;9.70;39.10;;;;;;4991719;28;20393;-71
2023/04/20 09:15:30;;;;;;;16.00;10.20;;;9.70;39.80;;;;;;4992098;28;20390;-71
2023/04/20 09:17:56;;;;;;;15.83;10.37;;;9.60;43.90;;;;;;4991723;28;20438;-72
2023/04/20 09:20:29;;;;;;;19.77;11.48;;;9.50;45.70;;;;;;4992098;28;20409;-71
2023/04/20 09:22:55;;;;;;;15.20;11.50;;;9.50;48.20;;;;;;4991390;28;20488;-72
2023/04/20 09:25:22;;;;;;;16.60;11.40;;;9.50;47.90;;;;;;4991625;28;20482;-70
2023/04/20 09:27:58;;;;;;;14.18;11.32;;;9.50;48.00;;;;;;4991837;28;20382;-70
2023/04/20 09:30:24;;;;;;;17.05;12.13;;;9.70;49.70;;;;;;4992877;28;20414;-71
2023/04/20 09:33:03;;;;;;;16.88;11.10;;;9.70;48.60;;;;;;4990900;28;20500;-71
2023/04/20 09:35:30;;;;;;;11.17;8.70;;;9.80;46.70;;;;;;4992034;28;20685;-73
2023/04/20 09:37:55;;;;;;;11.52;8.45;;;10.10;43.60;;;;;;4991990;28;20382;-71
2023/04/20 09:40:24;;;;;;;11.43;8.17;;;10.50;42.30;;;;;;4990844;28;20818;-73
2023/04/20 09:42:52;;;;;;;15.90;8.07;;;10.90;36.90;;;;;;4986180;28;20574;-72
2023/04/20 09:45:18;;;;;;;8.48;6.80;;;11.20;35.30;;;;;;4987876;28;20466;-72
2023/04/20 09:47:44;;;;;;;11.30;7.60;;;11.00;33.70;;;;;;5004272;28;20769;-73
2023/04/20 09:50:10;;;;;;;19.75;8.93;;;11.10;35.30;;;;;;5011460;28;20495;-72
2023/04/20 09:52:37;;;;;;;13.30;8.05;;;11.20;35.50;;;;;;5010713;28;20532;-73
2023/04/20 09:55:06;;;;;;;13.35;8.43;;;11.40;36.10;;;;;;5013715;28;20397;-72
2023/04/20 09:57:32;;;;;;;10.05;7.72;;;11.70;31.50;;;;;;5013220;28;20385;-72
2023/04/20 09:59:59;;;;;;;9.98;7.80;;;12.00;31.50;;;;;;5017033;28;20778;-74
2023/04/20 10:02:25;;;;;;;11.68;7.60;;;12.20;30.40;;;;;;5015801;28;20409;-72
2023/04/20 10:04:55;;;;;;;6.97;6.00;;;12.50;29.10;;;;;;5015789;28;20692;-73
2023/04/20 10:07:25;;;;;;;21.67;6.97;;;12.50;24.70;;;;;;5016723;28;20397;-73
2023/04/20 10:10:12;;;;;;;13.77;6.30;;;12.90;24.30;;;;;;5016966;28;20395;-72
2023/04/20 10:12:53;;;;;;;6.70;5.50;;;12.70;23.80;;;;;;5015257;28;20380;-72
2023/04/20 10:15:20;;;;;;;7.45;5.10;;;12.80;23.30;;;;;;5013788;28;20484;-72
2023/04/20 10:17:46;;;;;;;5.28;4.78;;;12.80;22.20;;;;;;5014436;28;20480;-72
2023/04/20 10:20:24;;;;;;;6.60;5.30;;;12.70;22.40;;;;;;5015466;28;20396;-71
2023/04/20 10:23:04;;;;;;;6.60;4.97;;;12.70;22.70;;;;;;5015353;28;20405;-71
2023/04/20 10:25:30;;;;;;;6.55;4.90;;;12.90;21.80;;;;;;5015985;28;20431;-71
2023/04/20 10:28:04;;;;;;;6.88;4.93;;;13.20;20.20;;;;;;5025825;28;20502;-72
2023/04/20 10:30:31;;;;;;;6.15;4.70;;;13.40;19.00;;;;;;5031832;28;20395;-72
2023/04/20 10:33:10;;;;;;;7.35;4.75;;;13.50;19.30;;;;;;5031253;28;20877;-72
2023/04/20 10:35:53;;;;;;;7.10;4.40;;;13.40;19.10;;;;;;5025072;28;20415;-72
2023/04/20 10:38:32;;;;;;;5.50;4.70;;;13.10;19.70;;;;;;5017001;28;20435;-72
2023/04/20 10:41:08;;;;;;;5.97;4.75;;;12.60;21.10;;;;;;5014473;28;20403;-73
2023/04/20 10:43:34;;;;;;;7.78;5.47;;;12.20;24.40;;;;;;5015419;28;20404;-72
2023/04/20 10:46:00;;;;;;;9.15;6.15;;;11.90;26.20;;;;;;5013368;28;20401;-71
2023/04/20 10:48:25;;;;;;;8.85;6.07;;;12.00;27.80;;;;;;5014575;28;20391;-71
2023/04/20 10:50:51;;;;;;;6.70;5.90;;;12.30;28.40;;;;;;5014471;28;20423;-71
2023/04/20 10:53:18;;;;;;;10.05;6.60;;;12.70;27.20;;;;;;5014459;28;20402;-71
2023/04/20 10:55:44;;;;;;;8.55;5.70;;;13.20;24.60;;;;;;5015183;28;20769;-72
2023/04/20 10:58:20;;;;;;;6.10;5.40;;;13.50;23.30;;;;;;5017396;28;20384;-71
2023/04/20 11:00:56;;;;;;;6.57;4.60;;;13.30;22.50;;;;;;5015518;28;20408;-72
2023/04/20 11:03:22;;;;;;;7.20;4.40;;;13.50;20.00;;;;;;5014723;28;20445;-72
2023/04/20 11:05:50;;;;;;;6.83;4.73;;;13.50;20.00;;;;;;5012728;28;20453;-72
2023/04/20 11:08:16;;;;;;;10.32;5.15;;;14.00;20.10;;;;;;5014260;28;20385;-71
2023/04/20 11:10:42;;;;;;;6.53;4.22;;;14.50;18.60;;;;;;5012303;28;20616;-72
2023/04/20 11:13:24;;;;;;;4.60;4.10;;;14.20;16.70;;;;;;5013362;28;20749;-71
2023/04/20 11:15:50;;;;;;;6.22;4.32;;;14.10;18.30;;;;;;5014037;28;20403;-71
2023/04/20 11:18:16;;;;;;;7.57;5.25;;;13.90;18.20;;;;;;5014194;28;20371;-71
2023/04/20 11:20:52;;;;;;;6.68;4.45;;;13.70;19.30;;;;;;5012526;28;20894;-72
2023/04/20 11:23:22;;;;;;;4.50;4.05;;;13.70;18.70;;;;;;5015364;28;20479;-71
2023/04/20 11:25:55;;;;;;;5.40;3.53;;;13.50;19.50;;;;;;5014116;28;20385;-73
2023/04/20 11:28:21;;;;;;;6.63;3.50;;;13.30;19.70;;;;;;5014297;28;20776;-71
2023/04/20 11:30:48;;;;;;;3.72;3.35;;;13.40;18.20;;;;;;5012574;28;20397;-69
2023/04/20 11:33:14;;;;;;;6.15;4.80;;;13.50;18.20;;;;;;5013652;28;20408;-72
2023/04/20 11:35:41;;;;;;;4.50;4.10;;;13.20;19.30;;;;;;5013255;28;20401;-70
2023/04/20 11:38:08;;;;;;;6.20;4.05;;;13.10;19.00;;;;;;5014197;28;20388;-73
2023/04/20 11:40:34;;;;;;;5.20;3.90;;;13.00;19.90;;;;;;5012721;28;20397;-73
2023/04/20 11:43:00;;;;;;;5.70;3.90;;;13.10;20.00;;;;;;5013201;28;20405;-72
2023/04/20 11:45:26;;;;;;;4.15;3.80;;;13.30;19.70;;;;;;5012207;28;20396;-74
2023/04/20 11:47:55;;;;;;;6.72;3.72;;;13.30;19.60;;;;;;5015120;28;20749;-72
2023/04/20 11:50:21;;;;;;;4.27;3.60;;;13.40;18.80;;;;;;5014540;28;20877;-70
2023/04/20 11:52:46;;;;;;;5.68;3.90;;;13.60;18.10;;;;;;5012887;28;20408;-71
2023/04/20 11:55:12;;;;;;;4.70;3.20;;;13.80;18.40;;;;;;5013667;28;20551;-72
2023/04/20 11:57:37;;;;;;;4.10;3.50;;;13.80;17.10;;;;;;5013649;28;20400;-72
2023/04/20 12:00:05;;;;;;;5.70;2.90;;;13.80;17.70;;;;;;5013343;28;20893;-72
2023/04/20 12:02:30;;;;;;;3.40;2.88;;;13.60;17.00;;;;;;5012551;28;20431;-71
2023/04/20 12:04:56;;;;;;;3.67;2.72;;;13.90;16.80;;;;;;5013069;28;20384;-74
2023/04/20 12:07:22;;;;;;;5.20;2.90;;;14.20;16.50;;;;;;5012732;28;20399;-73
2023/04/20 12:09:48;;;;;;;4.60;2.87;;;14.40;15.30;;;;;;5013867;28;20393;-72
2023/04/20 12:12:13;;;;;;;4.35;3.20;;;14.70;14.70;;;;;;5012800;28;20475;-72
2023/04/20 12:14:39;;;;;;;4.47;2.83;;;14.40;14.90;;;;;;5012550;28;20468;-71
2023/04/20 12:17:04;;;;;;;3.77;3.00;;;14.20;14.80;;;;;;5012500;28;20439;-74
2023/04/20 12:19:30;;;;;;;8.40;3.97;;;14.10;14.30;;;;;;5012907;28;20400;-71
2023/04/20 12:21:56;;;;;;;8.02;3.42;;;14.10;15.10;;;;;;5011632;28;20413;-73
2023/04/20 12:24:22;;;;;;;4.20;2.83;;;14.30;14.60;;;;;;5013122;28;20389;-72
2023/04/20 12:26:48;;;;;;;5.90;3.00;;;14.70;13.40;;;;;;5015008;28;20392;-70
2023/04/20 12:29:13;;;;;;;3.10;2.80;;;14.70;13.50;;;;;;5026040;28;20388;-71
2023/04/20 12:31:39;;;;;;;6.07;3.80;;;14.80;13.70;;;;;;5024029;28;20724;-73
2023/04/20 12:34:05;;;;;;;4.93;3.90;;;14.50;14.20;;;;;;5020179;28;20587;-72
2023/04/20 12:36:31;;;;;;;3.30;3.00;;;14.40;14.30;;;;;;5022275;28;20492;-72
2023/04/20 12:38:57;;;;;;;3.90;3.40;;;14.50;14.80;;;;;;5021453;28;20420;-71
2023/04/20 12:41:23;;;;;;;6.30;4.00;;;14.50;14.70;;;;;;5019808;28;20400;-72
2023/04/20 12:43:49;;;;;;;3.60;3.30;;;14.80;14.50;;;;;;5021795;28;20422;-72
2023/04/20 12:46:15;;;;;;;6.00;3.65;;;15.00;13.10;;;;;;5020739;28;20381;-72